Time;durP1;ratioP1;P1;durP2;ratioP2;P2;SDS_P1;SDS_P2;PMS_P1;PMS_P2;Temp;Humidity;BMP_temperature;BMP_pressure;BME280_temperature;BME280_humidity;BME280_pressure;Samples;Min_cycle;Max_cycle;Signal;HPM_P1;HPM_P2
2021/06/06 00:00:41;;;;;;;63.38;36.08;;;14.50;99.90;;;;;;4165454;28;20511;-73
2021/06/06 00:02:42;;;;;;;64.18;37.97;;;14.50;99.90;;;;;;4165758;28;20025;-74
2021/06/06 00:04:45;;;;;;;59.50;33.58;;;14.40;99.90;;;;;;4164227;28;20036;-73
2021/06/06 00:06:46;;;;;;;48.00;31.25;;;14.50;99.90;;;;;;4165509;28;20041;-73
2021/06/06 00:08:47;;;;;;;49.95;29.35;;;14.60;99.90;;;;;;4165692;28;20034;-73
2021/06/06 00:10:49;;;;;;;48.08;29.38;;;14.50;99.90;;;;;;4165503;28;20117;-73
2021/06/06 00:12:50;;;;;;;46.85;28.67;;;14.40;99.90;;;;;;4165401;28;20514;-73
2021/06/06 00:14:51;;;;;;;52.30;26.45;;;14.30;99.90;;;;;;4165577;28;20025;-74
2021/06/06 00:16:55;;;;;;;47.05;25.95;;;14.30;99.90;;;;;;4165193;28;20085;-73
2021/06/06 00:18:56;;;;;;;45.05;28.83;;;14.40;99.90;;;;;;4164154;28;20025;-74
2021/06/06 00:20:57;;;;;;;45.30;28.00;;;14.50;99.90;;;;;;4164017;28;20037;-74
2021/06/06 00:22:58;;;;;;;44.03;27.10;;;14.40;99.90;;;;;;4163807;28;20026;-73
2021/06/06 00:24:59;;;;;;;46.88;27.95;;;14.40;99.90;;;;;;4165318;28;20140;-73
2021/06/06 00:27:00;;;;;;;45.80;28.63;;;14.30;99.90;;;;;;4165413;28;20512;-73
2021/06/06 00:29:02;;;;;;;48.28;29.10;;;14.30;99.90;;;;;;4165354;28;20519;-73
2021/06/06 00:31:05;;;;;;;55.67;33.40;;;14.40;99.90;;;;;;4165476;28;20053;-73
2021/06/06 00:33:06;;;;;;;49.00;31.50;;;14.40;99.90;;;;;;4165410;28;20036;-73
2021/06/06 00:35:09;;;;;;;51.72;31.15;;;14.50;99.90;;;;;;4165160;28;20026;-73
2021/06/06 00:37:10;;;;;;;51.90;30.23;;;14.40;99.90;;;;;;4163734;28;20084;-73
2021/06/06 00:39:11;;;;;;;47.83;25.25;;;14.30;99.90;;;;;;4163632;28;20026;-74
2021/06/06 00:41:13;;;;;;;48.58;28.80;;;14.40;99.90;;;;;;4165017;28;20052;-74
2021/06/06 00:43:14;;;;;;;43.45;27.55;;;14.40;99.90;;;;;;4165096;28;20368;-73
2021/06/06 00:45:19;;;;;;;55.70;31.38;;;14.40;99.90;;;;;;4164938;28;20056;-73
2021/06/06 00:47:20;;;;;;;49.60;27.23;;;14.30;99.90;;;;;;4165355;28;20064;-74
2021/06/06 00:49:22;;;;;;;46.65;26.58;;;14.30;99.90;;;;;;4164838;28;20120;-74
2021/06/06 00:51:38;;;;;;;45.47;28.13;;;14.30;99.90;;;;;;4164764;28;20490;-74
2021/06/06 00:53:42;;;;;;;54.60;29.10;;;14.40;99.90;;;;;;4165117;28;20034;-74
2021/06/06 00:55:43;;;;;;;49.10;28.13;;;14.30;99.90;;;;;;4164832;28;20033;-74
2021/06/06 00:57:45;;;;;;;41.13;26.30;;;14.40;99.90;;;;;;4165002;28;20032;-74
2021/06/06 00:59:58;;;;;;;48.90;28.35;;;14.40;99.90;;;;;;4164755;28;20076;-74
2021/06/06 01:01:59;;;;;;;42.80;26.55;;;14.30;99.90;;;;;;4167668;28;20387;-73
2021/06/06 01:04:01;;;;;;;49.13;25.30;;;14.40;99.90;;;;;;4164318;28;20040;-74
2021/06/06 01:06:01;;;;;;;50.47;33.05;;;14.50;99.90;;;;;;4164088;28;20121;-74
2021/06/06 01:08:11;;;;;;;53.55;31.70;;;14.50;99.90;;;;;;4179495;28;20079;-74
2021/06/06 01:10:12;;;;;;;55.00;30.40;;;14.40;99.90;;;;;;4160530;28;20062;-74
2021/06/06 01:12:26;;;;;;;48.92;28.30;;;14.30;99.90;;;;;;4163478;28;20029;-74
2021/06/06 01:14:38;;;;;;;54.47;31.33;;;14.40;99.90;;;;;;4161701;28;20569;-74
2021/06/06 01:16:46;;;;;;;52.90;31.92;;;14.40;99.90;;;;;;4160478;28;20037;-74
2021/06/06 01:18:50;;;;;;;55.75;31.92;;;14.40;99.90;;;;;;4162814;28;20041;-74
2021/06/06 01:21:10;;;;;;;54.05;31.48;;;14.30;99.90;;;;;;4161249;28;20039;-74
2021/06/06 01:23:39;;;;;;;60.83;31.98;;;14.30;99.90;;;;;;4161012;28;20053;-74
2021/06/06 01:25:46;;;;;;;54.45;31.75;;;14.20;99.90;;;;;;4160959;28;20095;-74
2021/06/06 01:27:53;;;;;;;59.65;35.13;;;14.20;99.90;;;;;;4161377;28;20428;-74
2021/06/06 01:30:20;;;;;;;64.85;33.35;;;14.20;99.90;;;;;;4162576;28;20022;-74
2021/06/06 01:32:29;;;;;;;51.28;30.13;;;14.10;99.90;;;;;;4158799;28;20030;-74
2021/06/06 01:34:32;;;;;;;53.03;30.65;;;14.20;99.90;;;;;;4162257;28;20034;-73
2021/06/06 01:36:38;;;;;;;53.33;30.05;;;14.20;99.90;;;;;;4164087;28;20030;-74
2021/06/06 01:38:47;;;;;;;50.97;30.73;;;14.20;99.90;;;;;;4163780;28;20022;-74
2021/06/06 01:40:51;;;;;;;52.75;32.33;;;14.20;99.90;;;;;;4162550;28;20029;-74
2021/06/06 01:42:58;;;;;;;52.00;30.67;;;14.30;99.90;;;;;;4163491;28;20037;-73
2021/06/06 01:45:05;;;;;;;54.92;31.98;;;14.30;99.90;;;;;;4165477;28;20033;-73
2021/06/06 01:47:17;;;;;;;52.97;31.70;;;14.30;99.90;;;;;;4163851;28;20044;-74
2021/06/06 01:49:20;;;;;;;52.45;31.27;;;14.20;99.90;;;;;;4162793;28;20041;-74
2021/06/06 01:51:34;;;;;;;53.33;32.28;;;14.30;99.90;;;;;;4164304;28;20026;-74
2021/06/06 01:53:37;;;;;;;51.35;32.80;;;14.20;99.90;;;;;;4162727;28;20037;-74
2021/06/06 01:55:47;;;;;;;59.17;33.25;;;14.30;99.90;;;;;;4163942;28;20488;-72
2021/06/06 01:57:50;;;;;;;67.40;35.08;;;14.30;99.90;;;;;;4164248;28;20361;-73
2021/06/06 01:59:53;;;;;;;70.10;38.08;;;14.30;99.90;;;;;;4162779;28;20038;-73
2021/06/06 02:01:53;;;;;;;;;;;14.20;99.90;;;;;;4162690;28;20026;-74
2021/06/06 02:03:56;;;;;;;72.63;37.55;;;14.20;99.90;;;;;;4163916;28;20579;-73
2021/06/06 02:05:58;;;;;;;70.43;38.88;;;14.20;99.90;;;;;;4160257;28;20036;-74
2021/06/06 02:08:00;;;;;;;71.63;40.53;;;14.30;99.90;;;;;;4157704;28;20556;-74
2021/06/06 02:10:13;;;;;;;63.40;38.10;;;14.30;99.90;;;;;;4149224;28;20029;-74
2021/06/06 02:12:15;;;;;;;66.10;38.13;;;14.20;99.90;;;;;;4157269;28;20153;-74
2021/06/06 02:14:21;;;;;;;72.05;41.85;;;14.30;99.90;;;;;;4170815;28;20033;-74
2021/06/06 02:16:27;;;;;;;66.47;41.97;;;14.30;99.90;;;;;;4159399;28;20128;-74
2021/06/06 02:18:29;;;;;;;66.38;39.22;;;14.30;99.90;;;;;;4163293;28;20025;-75
2021/06/06 02:20:33;;;;;;;69.07;40.30;;;14.30;99.90;;;;;;4160880;28;20033;-74
2021/06/06 02:22:34;;;;;;;73.60;42.00;;;14.20;99.90;;;;;;4162325;28;20025;-74
2021/06/06 02:24:36;;;;;;;71.60;41.15;;;14.20;99.90;;;;;;4154253;28;20503;-74
2021/06/06 02:26:52;;;;;;;70.63;43.28;;;14.20;99.90;;;;;;4159206;28;20453;-74
2021/06/06 02:29:01;;;;;;;80.72;45.92;;;14.30;99.90;;;;;;4163559;28;20033;-75
2021/06/06 02:31:26;;;;;;;78.25;42.95;;;14.20;99.90;;;;;;4163133;28;20026;-74
2021/06/06 02:33:36;;;;;;;82.10;42.90;;;14.10;99.90;;;;;;4163149;28;20107;-75
2021/06/06 02:35:41;;;;;;;67.72;40.92;;;14.10;99.90;;;;;;4163199;28;20032;-75
2021/06/06 02:37:56;;;;;;;62.00;40.65;;;14.20;99.90;;;;;;4157368;28;20036;-75
2021/06/06 02:40:07;;;;;;;68.72;41.25;;;14.40;99.90;;;;;;4156350;28;20116;-74
2021/06/06 02:42:15;;;;;;;69.85;40.47;;;14.30;99.90;;;;;;4161621;28;20108;-75
2021/06/06 02:44:24;;;;;;;74.25;40.25;;;14.30;99.90;;;;;;4149623;28;20018;-75
2021/06/06 02:46:26;;;;;;;68.15;41.63;;;14.30;99.90;;;;;;4161905;28;20033;-75
2021/06/06 02:48:42;;;;;;;65.75;40.40;;;14.30;99.90;;;;;;4163467;28;20030;-75
2021/06/06 02:50:45;;;;;;;56.60;37.33;;;14.30;99.90;;;;;;4163055;28;20044;-75
2021/06/06 02:52:59;;;;;;;63.50;36.55;;;14.30;99.90;;;;;;4163386;28;20029;-74
2021/06/06 02:55:01;;;;;;;69.60;42.30;;;14.30;99.90;;;;;;4163107;28;20084;-75
2021/06/06 02:57:07;;;;;;;67.97;38.83;;;14.20;99.90;;;;;;4161814;28;20042;-74
2021/06/06 02:59:19;;;;;;;57.13;37.90;;;14.30;99.90;;;;;;4162119;28;20033;-74
2021/06/06 03:01:30;;;;;;;65.03;37.38;;;14.30;99.90;;;;;;4149172;28;20065;-74
2021/06/06 03:03:36;;;;;;;58.10;36.40;;;14.30;99.90;;;;;;4161440;28;20021;-74
2021/06/06 03:05:37;;;;;;;54.72;34.25;;;14.40;99.90;;;;;;4161632;28;20042;-74
2021/06/06 03:07:46;;;;;;;51.13;34.80;;;14.40;99.90;;;;;;4157165;28;20130;-75
2021/06/06 03:09:47;;;;;;;57.33;38.22;;;14.40;99.90;;;;;;4149670;28;20029;-74
2021/06/06 03:11:51;;;;;;;58.70;34.13;;;14.30;99.90;;;;;;4162902;28;20176;-74
2021/06/06 03:13:59;;;;;;;57.33;33.60;;;14.40;99.90;;;;;;4163210;28;20049;-75
2021/06/06 03:16:01;;;;;;;49.65;32.40;;;14.30;99.90;;;;;;4162663;28;20052;-75
2021/06/06 03:18:04;;;;;;;49.95;32.92;;;14.30;99.90;;;;;;4162594;28;20494;-74
2021/06/06 03:20:26;;;;;;;;;;;14.20;99.90;;;;;;4162938;28;20057;-75
2021/06/06 03:22:34;;;;;;;43.13;29.80;;;14.20;99.90;;;;;;4161529;28;19917;-75
2021/06/06 03:24:42;;;;;;;44.97;27.45;;;14.10;99.90;;;;;;4161497;28;20464;-75
2021/06/06 03:26:46;;;;;;;42.72;26.95;;;14.10;99.90;;;;;;4162630;28;20116;-74
2021/06/06 03:28:47;;;;;;;42.15;28.55;;;14.20;99.90;;;;;;4163046;28;20033;-74
2021/06/06 03:30:53;;;;;;;39.88;26.77;;;14.30;99.90;;;;;;4162972;28;20045;-74
2021/06/06 03:32:57;;;;;;;37.42;25.75;;;14.30;99.90;;;;;;4162852;28;20030;-76
2021/06/06 03:34:57;;;;;;;38.28;26.33;;;14.30;99.90;;;;;;4162165;28;20112;-74
2021/06/06 03:36:58;;;;;;;42.28;28.70;;;14.20;99.90;;;;;;4162025;28;20040;-75
2021/06/06 03:38:59;;;;;;;44.47;27.83;;;14.10;99.90;;;;;;4162620;28;20484;-75
2021/06/06 03:41:00;;;;;;;38.70;26.45;;;14.20;99.90;;;;;;4161251;28;20033;-75
2021/06/06 03:43:01;;;;;;;41.70;27.00;;;14.30;99.90;;;;;;4161357;28;20033;-74
2021/06/06 03:45:04;;;;;;;37.88;26.20;;;14.30;99.90;;;;;;4161400;28;20025;-74
2021/06/06 03:47:05;;;;;;;43.75;28.08;;;14.30;99.90;;;;;;4158560;28;20026;-75
2021/06/06 03:49:07;;;;;;;41.92;27.70;;;14.30;99.90;;;;;;4158875;28;20068;-74
2021/06/06 03:51:08;;;;;;;38.03;27.07;;;14.30;99.90;;;;;;4162743;28;20026;-75
2021/06/06 03:53:10;;;;;;;41.65;27.75;;;14.10;99.90;;;;;;4158988;28;20025;-75
2021/06/06 03:55:13;;;;;;;46.20;29.08;;;14.10;99.90;;;;;;4162570;28;20163;-75
2021/06/06 03:57:14;;;;;;;42.85;28.80;;;14.10;99.90;;;;;;4157298;28;20065;-75
2021/06/06 03:59:15;;;;;;;40.80;28.95;;;14.10;99.90;;;;;;4162260;28;20424;-75
2021/06/06 04:01:16;;;;;;;46.58;28.50;;;14.20;99.90;;;;;;4162442;28;20013;-74
2021/06/06 04:03:18;;;;;;;40.35;27.38;;;14.40;99.90;;;;;;4159066;28;20489;-75
2021/06/06 04:05:19;;;;;;;41.53;28.58;;;14.30;99.90;;;;;;4161292;28;20505;-75
2021/06/06 04:07:19;;;;;;;45.38;28.98;;;14.30;99.90;;;;;;4154867;28;20085;-75
2021/06/06 04:09:20;;;;;;;47.58;29.33;;;14.30;99.90;;;;;;4164615;28;20025;-75
2021/06/06 04:11:21;;;;;;;47.42;29.52;;;14.20;99.90;;;;;;4162574;28;20095;-75
2021/06/06 04:13:22;;;;;;;46.75;29.13;;;14.20;99.90;;;;;;4163837;28;20060;-75
2021/06/06 04:15:23;;;;;;;50.10;29.92;;;14.30;99.90;;;;;;4165388;28;20464;-74
2021/06/06 04:17:24;;;;;;;46.90;29.23;;;14.30;99.90;;;;;;4165215;28;20491;-74
2021/06/06 04:19:25;;;;;;;48.00;30.65;;;14.20;99.90;;;;;;4163933;28;20076;-74
2021/06/06 04:21:28;;;;;;;50.45;31.67;;;14.30;99.90;;;;;;4165308;28;20120;-74
2021/06/06 04:23:29;;;;;;;53.40;29.77;;;14.30;99.90;;;;;;4151737;28;20040;-74
2021/06/06 04:25:29;;;;;;;44.90;30.67;;;14.30;99.90;;;;;;4165450;28;20029;-74
2021/06/06 04:27:30;;;;;;;50.53;29.70;;;14.30;99.90;;;;;;4163982;28;20030;-74
2021/06/06 04:29:31;;;;;;;53.67;32.15;;;14.30;99.90;;;;;;4165380;28;20049;-74
2021/06/06 04:31:32;;;;;;;51.13;31.30;;;14.30;99.90;;;;;;4165018;28;20472;-74
2021/06/06 04:33:33;;;;;;;48.60;31.13;;;14.30;99.90;;;;;;4165029;28;20048;-74
2021/06/06 04:35:35;;;;;;;49.70;33.13;;;14.30;99.90;;;;;;4165351;28;20039;-74
2021/06/06 04:37:36;;;;;;;50.88;30.92;;;14.30;99.90;;;;;;4163492;28;20045;-74
2021/06/06 04:39:36;;;;;;;49.63;32.33;;;14.30;99.90;;;;;;4164968;28;20046;-74
2021/06/06 04:41:37;;;;;;;47.38;29.58;;;14.40;99.90;;;;;;4163524;28;20037;-74
2021/06/06 04:43:38;;;;;;;52.53;30.45;;;14.40;99.90;;;;;;4164844;28;20546;-73
2021/06/06 04:45:39;;;;;;;49.78;30.88;;;14.50;99.90;;;;;;4165011;28;20036;-73
2021/06/06 04:47:39;;;;;;;60.33;36.05;;;14.40;99.90;;;;;;4163800;28;20025;-74
2021/06/06 04:49:43;;;;;;;50.40;32.25;;;14.40;99.90;;;;;;4165147;28;20116;-74
2021/06/06 04:51:44;;;;;;;59.33;33.72;;;14.50;99.90;;;;;;4164929;28;20033;-73
2021/06/06 04:53:46;;;;;;;60.30;36.17;;;14.50;99.90;;;;;;4164860;28;20032;-74
2021/06/06 04:55:47;;;;;;;62.87;37.70;;;14.50;99.90;;;;;;4164798;28;20404;-73
2021/06/06 04:57:48;;;;;;;62.53;37.10;;;14.60;99.90;;;;;;4164603;28;20366;-73
2021/06/06 04:59:48;;;;;;;61.75;37.00;;;14.50;99.90;;;;;;4163183;28;20151;-74
2021/06/06 05:01:49;;;;;;;62.15;35.28;;;14.50;99.90;;;;;;4164686;28;20431;-74
2021/06/06 05:03:50;;;;;;;68.97;38.88;;;14.40;99.90;;;;;;4165060;28;20376;-74
2021/06/06 05:05:51;;;;;;;74.40;38.85;;;14.50;99.90;;;;;;4164619;28;20040;-74
2021/06/06 05:07:54;;;;;;;66.47;39.08;;;14.40;99.90;;;;;;4164449;28;20041;-74
2021/06/06 05:09:55;;;;;;;;;;;14.40;99.90;;;;;;4165145;28;20529;-74
2021/06/06 05:11:56;;;;;;;60.65;36.33;;;14.50;99.90;;;;;;4164094;28;19920;-74
2021/06/06 05:13:56;;;;;;;58.03;35.78;;;14.60;99.90;;;;;;4161876;28;20054;-74
2021/06/06 05:15:57;;;;;;;55.75;34.95;;;14.70;99.90;;;;;;4160128;28;20111;-74
2021/06/06 05:17:59;;;;;;;57.22;37.85;;;14.70;99.90;;;;;;4162139;28;20060;-74
2021/06/06 05:19:59;;;;;;;57.53;33.35;;;14.70;99.90;;;;;;4161579;28;20052;-74
2021/06/06 05:22:00;;;;;;;53.42;32.17;;;14.80;99.90;;;;;;4159412;28;20080;-73
2021/06/06 05:24:01;;;;;;;53.25;34.08;;;14.80;99.90;;;;;;4162361;28;20064;-73
2021/06/06 05:26:03;;;;;;;44.03;31.50;;;14.80;99.90;;;;;;4159264;28;20458;-74
2021/06/06 05:28:07;;;;;;;43.42;31.05;;;14.80;99.90;;;;;;4160553;28;20496;-73
2021/06/06 05:30:10;;;;;;;46.60;30.55;;;15.00;99.90;;;;;;4160808;28;20048;-74
2021/06/06 05:32:11;;;;;;;41.75;30.05;;;14.90;99.90;;;;;;4163397;28;20025;-74
2021/06/06 05:34:12;;;;;;;48.60;27.27;;;14.90;99.90;;;;;;4164171;28;20037;-74
2021/06/06 05:36:12;;;;;;;34.55;23.63;;;14.90;99.90;;;;;;4162922;28;20080;-73
2021/06/06 05:38:15;;;;;;;38.40;25.67;;;15.00;99.90;;;;;;4160538;28;20400;-73
2021/06/06 05:40:15;;;;;;;33.60;23.63;;;14.90;99.90;;;;;;4163584;28;20033;-73
2021/06/06 05:42:16;;;;;;;46.42;26.83;;;14.90;99.90;;;;;;4163391;28;20031;-73
2021/06/06 05:44:17;;;;;;;33.45;25.13;;;15.10;99.90;;;;;;4153821;28;20021;-74
2021/06/06 05:46:19;;;;;;;31.50;21.48;;;15.10;99.90;;;;;;4158897;28;20041;-73
2021/06/06 05:48:21;;;;;;;37.50;23.37;;;15.10;99.90;;;;;;4158047;28;20030;-73
2021/06/06 05:50:27;;;;;;;32.72;22.85;;;15.10;99.90;;;;;;4163858;28;20367;-73
2021/06/06 05:52:28;;;;;;;32.33;23.58;;;15.10;99.90;;;;;;4163820;28;20091;-74
2021/06/06 05:54:29;;;;;;;34.10;23.38;;;15.20;99.90;;;;;;4163875;28;20037;-74
2021/06/06 05:56:29;;;;;;;35.20;24.45;;;15.20;99.90;;;;;;4164024;28;20346;-74
2021/06/06 05:58:30;;;;;;;30.88;21.50;;;15.30;99.90;;;;;;4155852;28;20500;-74
2021/06/06 06:00:36;;;;;;;37.72;24.88;;;15.40;99.90;;;;;;4150599;28;20088;-73
2021/06/06 06:02:36;;;;;;;31.90;20.75;;;15.40;99.90;;;;;;4150427;28;20121;-74
2021/06/06 06:04:38;;;;;;;28.83;20.27;;;15.50;99.90;;;;;;4151026;28;20030;-74
2021/06/06 06:06:39;;;;;;;29.27;20.80;;;15.60;99.90;;;;;;4158971;28;20404;-73
2021/06/06 06:08:43;;;;;;;26.92;19.17;;;15.60;99.90;;;;;;4156020;28;20033;-74
2021/06/06 06:10:45;;;;;;;24.80;18.50;;;15.70;99.90;;;;;;4161000;28;20059;-74
2021/06/06 06:12:47;;;;;;;23.90;18.55;;;15.80;99.90;;;;;;4162397;28;20060;-74
2021/06/06 06:14:47;;;;;;;26.35;19.15;;;15.80;99.90;;;;;;4161987;28;20049;-74
2021/06/06 06:16:48;;;;;;;26.48;18.05;;;15.80;99.90;;;;;;4163696;28;20137;-74
2021/06/06 06:18:50;;;;;;;30.27;17.83;;;15.80;99.90;;;;;;4154808;28;20432;-74
2021/06/06 06:20:52;;;;;;;21.83;17.30;;;15.80;99.90;;;;;;4155770;28;20092;-74
2021/06/06 06:22:53;;;;;;;25.92;17.38;;;15.80;99.90;;;;;;4162122;28;20033;-74
2021/06/06 06:24:53;;;;;;;23.73;17.23;;;15.90;99.90;;;;;;4163509;28;20033;-74
2021/06/06 06:26:55;;;;;;;18.90;15.63;;;15.80;99.90;;;;;;4163445;28;20082;-74
2021/06/06 06:28:56;;;;;;;19.92;16.05;;;15.90;99.90;;;;;;4161769;28;20036;-74
2021/06/06 06:30:57;;;;;;;24.88;17.15;;;16.00;99.90;;;;;;4162120;28;20412;-74
2021/06/06 06:32:58;;;;;;;22.98;16.15;;;15.90;99.90;;;;;;4158255;28;20053;-74
2021/06/06 06:34:58;;;;;;;20.25;16.45;;;15.90;99.90;;;;;;4150968;28;20050;-74
2021/06/06 06:36:59;;;;;;;19.80;15.25;;;16.00;99.90;;;;;;4162886;28;20037;-74
2021/06/06 06:38:59;;;;;;;22.48;17.02;;;15.90;99.90;;;;;;4154869;28;20044;-74
2021/06/06 06:41:01;;;;;;;20.02;16.30;;;16.10;99.90;;;;;;4153796;28;20042;-74
2021/06/06 06:43:04;;;;;;;17.55;14.57;;;16.10;99.90;;;;;;4160935;28;20451;-74
2021/06/06 06:45:10;;;;;;;19.05;15.43;;;16.10;99.90;;;;;;4161318;28;20018;-74
2021/06/06 06:47:11;;;;;;;22.33;15.07;;;16.20;99.90;;;;;;4161507;28;20029;-74
2021/06/06 06:49:12;;;;;;;21.20;16.10;;;16.20;99.90;;;;;;4147323;28;20021;-73
2021/06/06 06:51:14;;;;;;;20.55;15.60;;;16.20;99.90;;;;;;4153347;28;20033;-73
2021/06/06 06:53:15;;;;;;;18.45;15.48;;;16.20;99.90;;;;;;4162981;28;20421;-74
2021/06/06 06:55:18;;;;;;;22.17;15.85;;;16.20;99.90;;;;;;4155797;28;20040;-74
2021/06/06 06:57:19;;;;;;;19.33;16.70;;;16.30;99.90;;;;;;4160387;28;20566;-74
2021/06/06 06:59:27;;;;;;;16.30;13.77;;;16.30;99.90;;;;;;4165526;28;20055;-74
2021/06/06 07:01:28;;;;;;;18.40;14.52;;;16.30;99.90;;;;;;4162671;28;20025;-74
2021/06/06 07:03:32;;;;;;;18.38;15.00;;;16.40;99.90;;;;;;4162656;28;20022;-74
2021/06/06 07:05:33;;;;;;;20.60;15.48;;;16.40;99.90;;;;;;4163143;28;20118;-73
2021/06/06 07:07:34;;;;;;;20.70;14.90;;;16.50;99.90;;;;;;4159847;28;20037;-74
2021/06/06 07:09:34;;;;;;;17.50;14.15;;;16.60;99.90;;;;;;4162120;28;20022;-73
2021/06/06 07:11:36;;;;;;;20.45;15.75;;;16.70;99.90;;;;;;4162695;28;20054;-73
2021/06/06 07:13:38;;;;;;;20.02;15.65;;;16.80;99.90;;;;;;4165543;28;20040;-73
2021/06/06 07:15:40;;;;;;;17.58;15.27;;;16.80;99.90;;;;;;4176451;28;20116;-73
2021/06/06 07:17:40;;;;;;;19.00;14.82;;;16.90;99.90;;;;;;4162707;28;20030;-74
2021/06/06 07:19:41;;;;;;;21.10;15.50;;;17.00;99.90;;;;;;4162776;28;20470;-74
2021/06/06 07:21:46;;;;;;;18.17;15.93;;;17.10;99.90;;;;;;4161022;28;20489;-74
2021/06/06 07:23:47;;;;;;;18.52;16.27;;;17.10;99.90;;;;;;4162712;28;20044;-74
2021/06/06 07:25:48;;;;;;;19.13;15.02;;;17.20;99.90;;;;;;4162602;28;20030;-74
2021/06/06 07:27:50;;;;;;;20.13;14.82;;;17.30;99.90;;;;;;4177887;28;20033;-74
2021/06/06 07:29:53;;;;;;;18.65;14.02;;;17.30;99.90;;;;;;4157877;28;20026;-74
2021/06/06 07:31:56;;;;;;;17.85;15.80;;;17.30;99.90;;;;;;4155254;28;20038;-74
2021/06/06 07:33:56;;;;;;;22.13;18.13;;;17.10;99.90;;;;;;4161619;28;20120;-74
2021/06/06 07:35:57;;;;;;;20.50;17.00;;;17.00;99.90;;;;;;4162559;28;20448;-74
2021/06/06 07:37:59;;;;;;;19.70;15.10;;;17.00;99.90;;;;;;4162196;28;20034;-74
2021/06/06 07:40:00;;;;;;;22.17;16.20;;;17.00;99.90;;;;;;4162700;28;20038;-74
2021/06/06 07:42:00;;;;;;;17.30;15.50;;;17.10;99.90;;;;;;4162054;28;20314;-74
2021/06/06 07:44:02;;;;;;;18.30;13.73;;;17.10;99.90;;;;;;4162247;28;20404;-74
2021/06/06 07:46:04;;;;;;;18.60;14.82;;;17.10;99.90;;;;;;4162596;28;20040;-74
2021/06/06 07:48:06;;;;;;;13.63;12.23;;;17.10;99.90;;;;;;4164016;28;20037;-74
2021/06/06 07:50:09;;;;;;;17.90;13.13;;;17.20;99.90;;;;;;4164496;28;20037;-74
2021/06/06 07:52:10;;;;;;;16.02;14.10;;;17.10;99.90;;;;;;4180318;28;20032;-74
2021/06/06 07:54:10;;;;;;;15.07;13.55;;;17.00;99.90;;;;;;4164667;28;20030;-74
2021/06/06 07:56:11;;;;;;;14.43;12.68;;;17.10;99.90;;;;;;4165047;28;20034;-74
2021/06/06 07:58:17;;;;;;;15.27;12.75;;;17.30;99.90;;;;;;4167154;28;20109;-74
2021/06/06 08:00:23;;;;;;;14.57;11.93;;;17.40;99.90;;;;;;4165970;28;20037;-74
2021/06/06 08:02:25;;;;;;;14.93;13.23;;;17.40;99.90;;;;;;4163916;28;20056;-74
2021/06/06 08:04:26;;;;;;;16.05;13.35;;;17.50;99.90;;;;;;4164511;28;20523;-73
2021/06/06 08:06:27;;;;;;;14.23;11.07;;;17.60;99.90;;;;;;4163902;28;20025;-73
2021/06/06 08:08:28;;;;;;;13.82;11.43;;;17.60;99.90;;;;;;4178271;28;20056;-73
2021/06/06 08:10:32;;;;;;;13.38;10.88;;;17.80;99.90;;;;;;4165347;28;20044;-73
2021/06/06 08:12:33;;;;;;;14.27;10.23;;;18.00;99.90;;;;;;4164185;28;20025;-73
2021/06/06 08:14:33;;;;;;;10.55;9.25;;;18.10;99.90;;;;;;4164978;28;20037;-73
2021/06/06 08:16:35;;;;;;;16.13;12.10;;;18.20;99.90;;;;;;4163872;28;20481;-73
2021/06/06 08:18:39;;;;;;;13.75;10.40;;;18.20;99.90;;;;;;4165895;28;20046;-73
2021/06/06 08:20:45;;;;;;;16.10;12.38;;;18.30;99.90;;;;;;4163512;28;20488;-74
2021/06/06 08:22:46;;;;;;;15.85;14.23;;;18.30;99.90;;;;;;4165117;28;20055;-74
2021/06/06 08:24:47;;;;;;;15.07;9.73;;;18.40;99.90;;;;;;4165736;28;20043;-74
2021/06/06 08:26:47;;;;;;;10.95;8.65;;;18.60;99.90;;;;;;4165272;28;20041;-74
2021/06/06 08:28:50;;;;;;;13.50;9.18;;;18.70;99.90;;;;;;4165298;28;20120;-74
2021/06/06 08:31:13;;;;;;;12.75;9.65;;;18.90;99.90;;;;;;4164625;28;20029;-74
2021/06/06 08:33:14;;;;;;;11.70;8.93;;;19.10;99.90;;;;;;4160911;28;20025;-74
2021/06/06 08:35:15;;;;;;;13.32;9.00;;;19.10;99.90;;;;;;4164839;28;20156;-74
2021/06/06 08:37:16;;;;;;;11.57;8.73;;;19.10;99.90;;;;;;4164847;28;20025;-74
2021/06/06 08:39:26;;;;;;;10.60;9.40;;;19.30;99.90;;;;;;4165057;28;20026;-74
2021/06/06 08:41:56;;;;;;;12.18;9.05;;;19.30;99.90;;;;;;4164687;28;20079;-74
2021/06/06 08:44:19;;;;;;;9.07;8.13;;;19.40;99.90;;;;;;4161574;28;20025;-74
2021/06/06 08:46:23;;;;;;;12.15;9.27;;;19.30;99.90;;;;;;4157491;28;20040;-74
2021/06/06 08:48:24;;;;;;;11.50;9.43;;;19.30;99.90;;;;;;4165471;28;20029;-73
2021/06/06 08:50:39;;;;;;;10.98;8.80;;;19.30;99.90;;;;;;4173813;28;20041;-73
2021/06/06 08:53:05;;;;;;;10.70;8.93;;;19.40;99.90;;;;;;4159925;28;20041;-74
2021/06/06 08:55:23;;;;;;;11.07;8.98;;;19.50;99.90;;;;;;4164345;28;20060;-73
2021/06/06 08:57:47;;;;;;;10.77;8.07;;;19.70;99.90;;;;;;4163846;28;20083;-73
2021/06/06 08:59:55;;;;;;;10.15;9.13;;;20.40;99.90;;;;;;4162805;28;20073;-73
2021/06/06 09:02:15;;;;;;;9.98;7.45;;;20.70;99.90;;;;;;4163325;28;20436;-74
2021/06/06 09:04:26;;;;;;;10.90;8.10;;;20.90;99.90;;;;;;4158389;28;20112;-74
2021/06/06 09:06:47;;;;;;;9.98;8.02;;;20.80;99.90;;;;;;4158993;28;20495;-74
2021/06/06 09:08:48;;;;;;;9.38;8.10;;;20.70;99.90;;;;;;4164658;28;20116;-74
2021/06/06 09:10:53;;;;;;;11.30;8.02;;;20.80;99.90;;;;;;4164582;28;20473;-74
2021/06/06 09:12:55;;;;;;;8.90;7.80;;;;;;;;;;4164216;28;20487;-74
2021/06/06 09:14:58;;;;;;;9.02;8.13;;;;;;;;;;4179677;28;20041;-73
2021/06/06 09:17:07;;;;;;;9.00;7.15;;;21.40;99.90;;;;;;4179786;28;20041;-73
2021/06/06 09:19:11;;;;;;;9.63;7.43;;;21.70;99.90;;;;;;4164267;28;20064;-73
2021/06/06 09:21:20;;;;;;;8.13;7.32;;;21.60;99.90;;;;;;4164494;28;20499;-73
2021/06/06 09:23:27;;;;;;;9.38;7.22;;;21.40;99.90;;;;;;4164603;28;20954;-74
2021/06/06 09:25:37;;;;;;;8.30;7.32;;;21.30;99.90;;;;;;4164698;28;20037;-74
2021/06/06 09:27:39;;;;;;;7.65;6.85;;;21.30;99.90;;;;;;4161476;28;20080;-74
2021/06/06 09:29:40;;;;;;;12.02;8.00;;;21.20;99.90;;;;;;4164441;28;20033;-74
2021/06/06 09:31:41;;;;;;;8.48;7.20;;;21.10;99.90;;;;;;4164452;28;20116;-74
2021/06/06 09:33:47;;;;;;;11.27;7.38;;;21.00;99.90;;;;;;4162141;28;20029;-74
2021/06/06 09:36:00;;;;;;;10.00;7.43;;;21.00;99.90;;;;;;4164677;28;20030;-74
2021/06/06 09:38:31;;;;;;;9.07;7.35;;;20.60;99.90;;;;;;4163026;28;20044;-73
2021/06/06 09:40:37;;;;;;;8.07;7.38;;;20.60;99.90;;;;;;4156106;28;20032;-73
2021/06/06 09:42:47;;;;;;;8.45;7.35;;;20.70;99.90;;;;;;4163168;28;20033;-73
2021/06/06 09:45:08;;;;;;;7.45;6.75;;;20.80;99.90;;;;;;4163536;28;20025;-73
2021/06/06 09:47:09;;;;;;;7.40;6.50;;;21.30;99.90;;;;;;4163741;28;20080;-73
2021/06/06 09:49:23;;;;;;;7.20;6.50;;;21.70;99.90;;;;;;4164056;28;20025;-74
2021/06/06 09:51:29;;;;;;;9.98;7.63;;;22.10;99.90;;;;;;4164175;28;20361;-74
2021/06/06 09:53:31;;;;;;;7.43;6.72;;;22.00;99.90;;;;;;4153447;28;20037;-74
2021/06/06 09:55:33;;;;;;;7.38;6.75;;;21.80;99.90;;;;;;4160339;28;20021;-74
2021/06/06 09:57:37;;;;;;;6.95;6.35;;;21.70;99.90;;;;;;4162556;28;20060;-74
2021/06/06 09:59:38;;;;;;;7.70;6.55;;;22.10;99.90;;;;;;4163850;28;20037;-74
2021/06/06 10:01:58;;;;;;;10.38;7.00;;;22.20;99.90;;;;;;4163594;28;20172;-74
2021/06/06 10:04:07;;;;;;;8.82;6.90;;;21.80;99.90;;;;;;4163654;28;20045;-74
2021/06/06 10:06:23;;;;;;;10.27;6.95;;;21.80;99.90;;;;;;4163365;28;20488;-74
2021/06/06 10:08:27;;;;;;;8.55;7.18;;;21.80;99.90;;;;;;4162295;28;20508;-74
2021/06/06 10:10:33;;;;;;;7.03;6.32;;;21.80;99.90;;;;;;4163325;28;20029;-74
2021/06/06 10:12:42;;;;;;;8.27;7.13;;;22.00;99.90;;;;;;4164574;28;20030;-74
2021/06/06 10:14:48;;;;;;;8.73;7.25;;;22.20;99.90;;;;;;4162931;28;20030;-74
2021/06/06 10:16:54;;;;;;;6.10;5.50;;;22.60;99.90;;;;;;4162543;28;20040;-74
2021/06/06 10:19:30;;;;;;;10.13;7.50;;;23.00;99.90;;;;;;4163692;28;20030;-74
2021/06/06 10:21:34;;;;;;;9.43;7.20;;;23.10;99.90;;;;;;4150942;28;20389;-74
2021/06/06 10:23:42;;;;;;;7.35;6.72;;;22.90;99.90;;;;;;4163543;28;20374;-73
2021/06/06 10:25:49;;;;;;;10.15;6.60;;;22.80;99.90;;;;;;4156691;28;20355;-72
2021/06/06 10:27:59;;;;;;;6.63;5.85;;;22.70;99.90;;;;;;4160726;28;20064;-73
2021/06/06 10:30:08;;;;;;;10.13;6.80;;;22.70;99.90;;;;;;4161925;28;20030;-75
2021/06/06 10:32:35;;;;;;;7.40;6.40;;;22.80;99.90;;;;;;4162303;28;20582;-74
2021/06/06 10:34:44;;;;;;;7.40;6.70;;;22.80;99.90;;;;;;4162117;28;20037;-75